sensor_id;sensor_type;location;lat;lon;timestamp;temperature;humidity
38902;DHT22;24661;53.566;9.910;2022-11-28T00:01:34;6.00;99.90
38902;DHT22;24661;53.566;9.910;2022-11-28T00:04:01;5.90;99.90
38902;DHT22;24661;53.566;9.910;2022-11-28T00:06:27;6.00;99.90
38902;DHT22;24661;53.566;9.910;2022-11-28T00:08:53;6.00;99.90
38902;DHT22;24661;53.566;9.910;2022-11-28T00:11:19;5.90;99.90
38902;DHT22;24661;53.566;9.910;2022-11-28T00:13:45;5.90;99.90
38902;DHT22;24661;53.566;9.910;2022-11-28T00:16:19;5.90;99.90
38902;DHT22;24661;53.566;9.910;2022-11-28T00:18:46;5.90;99.90
38902;DHT22;24661;53.566;9.910;2022-11-28T00:21:14;5.90;99.90
38902;DHT22;24661;53.566;9.910;2022-11-28T00:23:42;6.00;99.90
38902;DHT22;24661;53.566;9.910;2022-11-28T00:26:17;5.90;99.90
38902;DHT22;24661;53.566;9.910;2022-11-28T00:28:43;5.90;99.90
38902;DHT22;24661;53.566;9.910;2022-11-28T00:31:20;5.90;99.90
38902;DHT22;24661;53.566;9.910;2022-11-28T00:33:47;5.90;99.90
38902;DHT22;24661;53.566;9.910;2022-11-28T00:36:13;5.90;99.90
38902;DHT22;24661;53.566;9.910;2022-11-28T00:38:39;5.80;99.90
38902;DHT22;24661;53.566;9.910;2022-11-28T00:41:11;6.00;99.90
38902;DHT22;24661;53.566;9.910;2022-11-28T00:43:38;5.90;99.90
38902;DHT22;24661;53.566;9.910;2022-11-28T00:46:04;5.90;99.90
38902;DHT22;24661;53.566;9.910;2022-11-28T00:48:32;5.90;99.90
38902;DHT22;24661;53.566;9.910;2022-11-28T00:51:12;5.90;99.90
38902;DHT22;24661;53.566;9.910;2022-11-28T00:53:40;5.90;99.90
38902;DHT22;24661;53.566;9.910;2022-11-28T00:56:11;5.90;99.90
38902;DHT22;24661;53.566;9.910;2022-11-28T00:58:38;6.00;99.90
38902;DHT22;24661;53.566;9.910;2022-11-28T01:03:40;5.90;99.90
38902;DHT22;24661;53.566;9.910;2022-11-28T01:06:06;5.90;99.90
38902;DHT22;24661;53.566;9.910;2022-11-28T01:08:33;6.00;99.90
38902;DHT22;24661;53.566;9.910;2022-11-28T01:10:58;6.00;99.90
38902;DHT22;24661;53.566;9.910;2022-11-28T01:13:24;6.00;99.90
38902;DHT22;24661;53.566;9.910;2022-11-28T01:15:50;6.00;99.90
38902;DHT22;24661;53.566;9.910;2022-11-28T01:18:15;6.00;99.90
38902;DHT22;24661;53.566;9.910;2022-11-28T01:20:41;6.00;99.90
38902;DHT22;24661;53.566;9.910;2022-11-28T01:23:07;6.00;99.90
38902;DHT22;24661;53.566;9.910;2022-11-28T01:25:32;6.00;99.90
38902;DHT22;24661;53.566;9.910;2022-11-28T01:27:58;6.00;99.90
38902;DHT22;24661;53.566;9.910;2022-11-28T01:30:24;6.00;99.90
38902;DHT22;24661;53.566;9.910;2022-11-28T01:32:49;5.90;99.90
38902;DHT22;24661;53.566;9.910;2022-11-28T01:35:15;5.80;99.90
38902;DHT22;24661;53.566;9.910;2022-11-28T01:37:41;5.90;99.90
38902;DHT22;24661;53.566;9.910;2022-11-28T01:40:07;5.80;99.90
38902;DHT22;24661;53.566;9.910;2022-11-28T01:42:33;6.00;99.90
38902;DHT22;24661;53.566;9.910;2022-11-28T01:45:24;5.90;99.90
38902;DHT22;24661;53.566;9.910;2022-11-28T01:47:51;5.00;99.90
38902;DHT22;24661;53.566;9.910;2022-11-28T01:50:19;5.90;99.90
38902;DHT22;24661;53.566;9.910;2022-11-28T01:52:50;5.90;99.90
38902;DHT22;24661;53.566;9.910;2022-11-28T01:55:20;5.90;99.90
38902;DHT22;24661;53.566;9.910;2022-11-28T01:57:47;5.80;99.90
38902;DHT22;24661;53.566;9.910;2022-11-28T02:00:16;5.90;99.90
38902;DHT22;24661;53.566;9.910;2022-11-28T02:03:16;5.80;99.90
38902;DHT22;24661;53.566;9.910;2022-11-28T02:05:42;5.70;99.90
38902;DHT22;24661;53.566;9.910;2022-11-28T02:08:09;5.70;99.90
38902;DHT22;24661;53.566;9.910;2022-11-28T02:19:48;5.70;99.90
38902;DHT22;24661;53.566;9.910;2022-11-28T02:34:06;5.70;99.90
38902;DHT22;24661;53.566;9.910;2022-11-28T02:37:21;5.80;99.90
38902;DHT22;24661;53.566;9.910;2022-11-28T02:39:31;5.80;99.90
38902;DHT22;24661;53.566;9.910;2022-11-28T02:42:21;5.80;99.90
38902;DHT22;24661;53.566;9.910;2022-11-28T02:45:04;5.90;99.90
38902;DHT22;24661;53.566;9.910;2022-11-28T02:47:44;5.80;99.90
38902;DHT22;24661;53.566;9.910;2022-11-28T02:50:30;5.80;99.90
38902;DHT22;24661;53.566;9.910;2022-11-28T02:53:13;5.90;99.90
38902;DHT22;24661;53.566;9.910;2022-11-28T02:55:43;5.90;99.90
38902;DHT22;24661;53.566;9.910;2022-11-28T02:58:10;5.90;99.90
38902;DHT22;24661;53.566;9.910;2022-11-28T03:00:38;5.80;99.90
38902;DHT22;24661;53.566;9.910;2022-11-28T03:06:00;5.70;99.90
38902;DHT22;24661;53.566;9.910;2022-11-28T03:14:45;5.80;99.90
38902;DHT22;24661;53.566;9.910;2022-11-28T03:17:20;5.90;99.90
38902;DHT22;24661;53.566;9.910;2022-11-28T03:22:49;5.90;99.90
38902;DHT22;24661;53.566;9.910;2022-11-28T03:25:49;5.80;99.90
38902;DHT22;24661;53.566;9.910;2022-11-28T03:28:30;5.80;99.90
38902;DHT22;24661;53.566;9.910;2022-11-28T03:33:30;5.70;99.90
38902;DHT22;24661;53.566;9.910;2022-11-28T03:36:02;5.80;99.90
38902;DHT22;24661;53.566;9.910;2022-11-28T03:38:33;5.80;99.90
38902;DHT22;24661;53.566;9.910;2022-11-28T03:41:07;5.70;99.90
38902;DHT22;24661;53.566;9.910;2022-11-28T03:43:40;5.80;99.90
38902;DHT22;24661;53.566;9.910;2022-11-28T03:46:11;5.80;99.90
38902;DHT22;24661;53.566;9.910;2022-11-28T03:48:42;5.80;99.90
38902;DHT22;24661;53.566;9.910;2022-11-28T03:51:21;5.80;99.90
38902;DHT22;24661;53.566;9.910;2022-11-28T03:54:27;5.70;99.90
38902;DHT22;24661;53.566;9.910;2022-11-28T03:57:10;5.70;99.90
38902;DHT22;24661;53.566;9.910;2022-11-28T03:59:42;5.70;99.90
38902;DHT22;24661;53.566;9.910;2022-11-28T04:02:33;5.70;99.90
38902;DHT22;24661;53.566;9.910;2022-11-28T04:05:41;5.70;99.90
38902;DHT22;24661;53.566;9.910;2022-11-28T04:11:02;5.70;99.90
38902;DHT22;24661;53.566;9.910;2022-11-28T04:13:36;5.80;99.90
38902;DHT22;24661;53.566;9.910;2022-11-28T04:16:22;5.60;99.90
38902;DHT22;24661;53.566;9.910;2022-11-28T04:19:00;5.70;99.90
38902;DHT22;24661;53.566;9.910;2022-11-28T04:21:36;5.70;99.90
38902;DHT22;24661;53.566;9.910;2022-11-28T04:24:07;5.70;99.90
38902;DHT22;24661;53.566;9.910;2022-11-28T04:26:36;5.60;99.90
38902;DHT22;24661;53.566;9.910;2022-11-28T04:29:06;5.70;99.90
38902;DHT22;24661;53.566;9.910;2022-11-28T04:31:33;5.70;99.90
38902;DHT22;24661;53.566;9.910;2022-11-28T04:34:04;5.70;99.90
38902;DHT22;24661;53.566;9.910;2022-11-28T04:36:31;5.60;99.90
38902;DHT22;24661;53.566;9.910;2022-11-28T04:39:01;5.50;99.90
38902;DHT22;24661;53.566;9.910;2022-11-28T04:42:02;5.50;99.90
38902;DHT22;24661;53.566;9.910;2022-11-28T04:44:46;5.50;99.90
38902;DHT22;24661;53.566;9.910;2022-11-28T04:47:14;5.50;99.90
38902;DHT22;24661;53.566;9.910;2022-11-28T04:49:40;5.50;99.90
38902;DHT22;24661;53.566;9.910;2022-11-28T04:52:19;5.60;99.90
38902;DHT22;24661;53.566;9.910;2022-11-28T04:57:17;5.60;99.90
38902;DHT22;24661;53.566;9.910;2022-11-28T04:59:43;5.70;99.90
38902;DHT22;24661;53.566;9.910;2022-11-28T05:02:11;5.70;99.90
38902;DHT22;24661;53.566;9.910;2022-11-28T05:04:38;5.70;99.90
38902;DHT22;24661;53.566;9.910;2022-11-28T05:07:06;5.80;99.90
38902;DHT22;24661;53.566;9.910;2022-11-28T05:09:32;5.80;99.90
38902;DHT22;24661;53.566;9.910;2022-11-28T05:11:57;5.70;99.90
38902;DHT22;24661;53.566;9.910;2022-11-28T05:14:23;5.70;99.90
38902;DHT22;24661;53.566;9.910;2022-11-28T05:16:49;5.70;99.90
38902;DHT22;24661;53.566;9.910;2022-11-28T05:19:15;5.70;99.90
38902;DHT22;24661;53.566;9.910;2022-11-28T05:21:40;5.70;99.90
38902;DHT22;24661;53.566;9.910;2022-11-28T05:24:07;5.70;99.90
38902;DHT22;24661;53.566;9.910;2022-11-28T05:26:33;5.70;99.90
38902;DHT22;24661;53.566;9.910;2022-11-28T05:29:00;5.70;99.90
38902;DHT22;24661;53.566;9.910;2022-11-28T05:31:27;5.80;99.90
38902;DHT22;24661;53.566;9.910;2022-11-28T05:33:55;5.70;99.90
38902;DHT22;24661;53.566;9.910;2022-11-28T05:36:22;5.70;99.90
38902;DHT22;24661;53.566;9.910;2022-11-28T05:38:47;5.60;99.90
38902;DHT22;24661;53.566;9.910;2022-11-28T05:41:26;5.60;99.90
38902;DHT22;24661;53.566;9.910;2022-11-28T05:43:54;5.60;99.90
38902;DHT22;24661;53.566;9.910;2022-11-28T05:46:20;5.60;99.90
38902;DHT22;24661;53.566;9.910;2022-11-28T05:48:45;5.60;99.90
38902;DHT22;24661;53.566;9.910;2022-11-28T05:51:11;5.70;99.90
38902;DHT22;24661;53.566;9.910;2022-11-28T05:53:37;5.70;99.90
38902;DHT22;24661;53.566;9.910;2022-11-28T05:56:07;4.70;99.90
38902;DHT22;24661;53.566;9.910;2022-11-28T05:58:33;5.70;99.90
38902;DHT22;24661;53.566;9.910;2022-11-28T06:01:03;5.70;99.90
38902;DHT22;24661;53.566;9.910;2022-11-28T06:03:32;5.80;99.90
38902;DHT22;24661;53.566;9.910;2022-11-28T06:05:58;5.70;99.90
38902;DHT22;24661;53.566;9.910;2022-11-28T06:08:23;5.70;99.90
38902;DHT22;24661;53.566;9.910;2022-11-28T06:10:55;5.70;99.90
38902;DHT22;24661;53.566;9.910;2022-11-28T06:13:21;5.70;99.90
38902;DHT22;24661;53.566;9.910;2022-11-28T06:15:47;4.30;99.90
38902;DHT22;24661;53.566;9.910;2022-11-28T06:18:13;5.70;99.90
38902;DHT22;24661;53.566;9.910;2022-11-28T06:20:38;5.80;99.90
38902;DHT22;24661;53.566;9.910;2022-11-28T06:23:07;5.70;99.90
38902;DHT22;24661;53.566;9.910;2022-11-28T06:25:33;5.70;99.90
38902;DHT22;24661;53.566;9.910;2022-11-28T06:27:58;5.70;99.90
38902;DHT22;24661;53.566;9.910;2022-11-28T06:30:24;5.70;99.90
38902;DHT22;24661;53.566;9.910;2022-11-28T06:32:50;5.70;99.90
38902;DHT22;24661;53.566;9.910;2022-11-28T06:35:15;5.70;99.90
38902;DHT22;24661;53.566;9.910;2022-11-28T06:37:41;5.60;99.90
38902;DHT22;24661;53.566;9.910;2022-11-28T06:40:07;5.70;99.90
38902;DHT22;24661;53.566;9.910;2022-11-28T06:42:36;5.70;99.90
38902;DHT22;24661;53.566;9.910;2022-11-28T06:45:05;5.60;99.90
38902;DHT22;24661;53.566;9.910;2022-11-28T06:47:31;5.60;99.90
38902;DHT22;24661;53.566;9.910;2022-11-28T06:49:57;5.60;99.90
38902;DHT22;24661;53.566;9.910;2022-11-28T06:52:23;5.60;99.90
38902;DHT22;24661;53.566;9.910;2022-11-28T06:54:48;5.60;99.90
38902;DHT22;24661;53.566;9.910;2022-11-28T06:57:14;5.60;99.90
38902;DHT22;24661;53.566;9.910;2022-11-28T06:59:40;6.40;99.90
38902;DHT22;24661;53.566;9.910;2022-11-28T07:02:06;5.50;99.90
38902;DHT22;24661;53.566;9.910;2022-11-28T07:04:37;5.40;99.90
38902;DHT22;24661;53.566;9.910;2022-11-28T07:07:03;5.40;99.90
38902;DHT22;24661;53.566;9.910;2022-11-28T07:09:29;5.50;99.90
38902;DHT22;24661;53.566;9.910;2022-11-28T07:11:54;5.50;99.90
38902;DHT22;24661;53.566;9.910;2022-11-28T07:14:21;5.50;99.90
38902;DHT22;24661;53.566;9.910;2022-11-28T07:16:50;5.50;99.90
38902;DHT22;24661;53.566;9.910;2022-11-28T07:19:16;5.50;99.90
38902;DHT22;24661;53.566;9.910;2022-11-28T07:21:47;5.40;99.90
38902;DHT22;24661;53.566;9.910;2022-11-28T07:24:14;5.40;99.90
38902;DHT22;24661;53.566;9.910;2022-11-28T07:26:39;5.40;99.90
38902;DHT22;24661;53.566;9.910;2022-11-28T07:29:05;5.50;99.90
38902;DHT22;24661;53.566;9.910;2022-11-28T07:31:32;5.40;99.90
38902;DHT22;24661;53.566;9.910;2022-11-28T07:34:00;5.50;99.90
38902;DHT22;24661;53.566;9.910;2022-11-28T07:36:28;5.60;99.90
38902;DHT22;24661;53.566;9.910;2022-11-28T07:38:59;5.50;99.90
38902;DHT22;24661;53.566;9.910;2022-11-28T07:41:26;5.50;99.90
38902;DHT22;24661;53.566;9.910;2022-11-28T07:43:57;5.40;99.90
38902;DHT22;24661;53.566;9.910;2022-11-28T07:46:23;5.50;99.90
38902;DHT22;24661;53.566;9.910;2022-11-28T07:48:49;5.50;99.90
38902;DHT22;24661;53.566;9.910;2022-11-28T07:51:21;5.50;99.90
38902;DHT22;24661;53.566;9.910;2022-11-28T07:53:48;5.50;99.90
38902;DHT22;24661;53.566;9.910;2022-11-28T07:56:17;5.50;99.90
38902;DHT22;24661;53.566;9.910;2022-11-28T07:58:47;5.50;99.90
38902;DHT22;24661;53.566;9.910;2022-11-28T08:01:15;5.50;99.90
38902;DHT22;24661;53.566;9.910;2022-11-28T08:03:42;5.70;99.90
38902;DHT22;24661;53.566;9.910;2022-11-28T08:06:09;5.70;99.90
38902;DHT22;24661;53.566;9.910;2022-11-28T08:08:35;5.50;99.90
38902;DHT22;24661;53.566;9.910;2022-11-28T08:11:04;5.50;99.90
38902;DHT22;24661;53.566;9.910;2022-11-28T08:13:30;5.50;99.90
38902;DHT22;24661;53.566;9.910;2022-11-28T08:15:56;5.60;99.90
38902;DHT22;24661;53.566;9.910;2022-11-28T08:18:22;5.50;99.90
38902;DHT22;24661;53.566;9.910;2022-11-28T08:20:48;5.50;99.90
38902;DHT22;24661;53.566;9.910;2022-11-28T08:23:14;5.50;99.90
38902;DHT22;24661;53.566;9.910;2022-11-28T08:25:40;5.50;99.90
38902;DHT22;24661;53.566;9.910;2022-11-28T08:28:06;5.60;99.90
38902;DHT22;24661;53.566;9.910;2022-11-28T08:30:32;5.60;99.90
38902;DHT22;24661;53.566;9.910;2022-11-28T08:32:57;5.60;99.90
38902;DHT22;24661;53.566;9.910;2022-11-28T08:35:27;5.50;99.90
38902;DHT22;24661;53.566;9.910;2022-11-28T08:37:53;5.50;99.90
38902;DHT22;24661;53.566;9.910;2022-11-28T08:40:19;5.60;99.90
38902;DHT22;24661;53.566;9.910;2022-11-28T08:42:45;5.60;99.90
38902;DHT22;24661;53.566;9.910;2022-11-28T08:45:10;5.60;99.90
38902;DHT22;24661;53.566;9.910;2022-11-28T08:47:36;5.60;99.90
38902;DHT22;24661;53.566;9.910;2022-11-28T08:50:02;5.60;99.90
38902;DHT22;24661;53.566;9.910;2022-11-28T08:52:28;5.70;99.90
38902;DHT22;24661;53.566;9.910;2022-11-28T08:54:54;5.70;99.90
38902;DHT22;24661;53.566;9.910;2022-11-28T08:57:19;5.70;99.90
38902;DHT22;24661;53.566;9.910;2022-11-28T08:59:45;5.70;99.90
38902;DHT22;24661;53.566;9.910;2022-11-28T09:02:11;5.70;99.90
38902;DHT22;24661;53.566;9.910;2022-11-28T09:04:39;5.70;99.90
38902;DHT22;24661;53.566;9.910;2022-11-28T09:07:05;5.70;99.90
38902;DHT22;24661;53.566;9.910;2022-11-28T09:09:31;5.70;99.90
38902;DHT22;24661;53.566;9.910;2022-11-28T09:11:57;5.70;99.90
38902;DHT22;24661;53.566;9.910;2022-11-28T09:14:25;5.80;99.90
38902;DHT22;24661;53.566;9.910;2022-11-28T09:16:51;6.20;99.90
38902;DHT22;24661;53.566;9.910;2022-11-28T09:19:17;4.00;99.90
38902;DHT22;24661;53.566;9.910;2022-11-28T09:21:42;5.70;99.90
38902;DHT22;24661;53.566;9.910;2022-11-28T09:24:08;5.60;99.90
38902;DHT22;24661;53.566;9.910;2022-11-28T09:26:34;5.60;99.90
38902;DHT22;24661;53.566;9.910;2022-11-28T09:29:00;5.20;99.90
38902;DHT22;24661;53.566;9.910;2022-11-28T09:31:25;5.60;99.90
38902;DHT22;24661;53.566;9.910;2022-11-28T09:33:52;5.60;99.90
38902;DHT22;24661;53.566;9.910;2022-11-28T09:36:21;5.60;99.90
38902;DHT22;24661;53.566;9.910;2022-11-28T09:38:47;5.50;99.90
38902;DHT22;24661;53.566;9.910;2022-11-28T09:41:41;5.50;99.90
38902;DHT22;24661;53.566;9.910;2022-11-28T09:44:15;5.50;99.90
38902;DHT22;24661;53.566;9.910;2022-11-28T09:46:43;5.60;99.90
38902;DHT22;24661;53.566;9.910;2022-11-28T09:57:50;5.70;99.90
38902;DHT22;24661;53.566;9.910;2022-11-28T10:00:44;5.70;99.90
38902;DHT22;24661;53.566;9.910;2022-11-28T10:03:16;5.80;99.90
38902;DHT22;24661;53.566;9.910;2022-11-28T10:06:02;5.80;99.90
38902;DHT22;24661;53.566;9.910;2022-11-28T10:08:48;7.20;99.90
38902;DHT22;24661;53.566;9.910;2022-11-28T10:11:44;5.80;99.90
38902;DHT22;24661;53.566;9.910;2022-11-28T10:19:59;5.90;99.90
38902;DHT22;24661;53.566;9.910;2022-11-28T10:25:17;5.90;99.90
38902;DHT22;24661;53.566;9.910;2022-11-28T10:27:44;5.80;99.90
38902;DHT22;24661;53.566;9.910;2022-11-28T10:30:26;5.80;99.90
38902;DHT22;24661;53.566;9.910;2022-11-28T10:33:00;5.90;99.90
38902;DHT22;24661;53.566;9.910;2022-11-28T10:35:48;5.90;99.90
38902;DHT22;24661;53.566;9.910;2022-11-28T10:38:16;6.00;99.90
38902;DHT22;24661;53.566;9.910;2022-11-28T10:40:44;5.90;99.90
38902;DHT22;24661;53.566;9.910;2022-11-28T10:51:07;6.00;99.90
38902;DHT22;24661;53.566;9.910;2022-11-28T11:02:37;6.10;99.90
38902;DHT22;24661;53.566;9.910;2022-11-28T11:05:07;6.10;99.90
38902;DHT22;24661;53.566;9.910;2022-11-28T11:07:37;6.00;99.90
38902;DHT22;24661;53.566;9.910;2022-11-28T11:10:29;6.00;99.90
38902;DHT22;24661;53.566;9.910;2022-11-28T11:12:57;5.90;99.90
38902;DHT22;24661;53.566;9.910;2022-11-28T11:17:55;5.80;99.90
38902;DHT22;24661;53.566;9.910;2022-11-28T11:20:38;5.80;99.90
38902;DHT22;24661;53.566;9.910;2022-11-28T11:25:47;5.70;99.90
38902;DHT22;24661;53.566;9.910;2022-11-28T11:28:40;5.70;99.90
38902;DHT22;24661;53.566;9.910;2022-11-28T11:31:22;5.70;99.90
38902;DHT22;24661;53.566;9.910;2022-11-28T11:33:51;5.50;99.90
38902;DHT22;24661;53.566;9.910;2022-11-28T11:36:27;5.50;99.90
38902;DHT22;24661;53.566;9.910;2022-11-28T11:41:51;5.30;99.90
38902;DHT22;24661;53.566;9.910;2022-11-28T11:44:34;5.40;99.90
38902;DHT22;24661;53.566;9.910;2022-11-28T11:47:04;5.30;99.90
38902;DHT22;24661;53.566;9.910;2022-11-28T11:49:40;5.30;99.90
38902;DHT22;24661;53.566;9.910;2022-11-28T11:52:14;5.20;99.90
38902;DHT22;24661;53.566;9.910;2022-11-28T11:57:47;5.20;99.90
38902;DHT22;24661;53.566;9.910;2022-11-28T12:00:23;5.30;99.90
38902;DHT22;24661;53.566;9.910;2022-11-28T12:02:59;5.30;99.90
38902;DHT22;24661;53.566;9.910;2022-11-28T12:05:27;5.20;99.90
38902;DHT22;24661;53.566;9.910;2022-11-28T12:10:43;5.40;99.90
38902;DHT22;24661;53.566;9.910;2022-11-28T12:13:28;5.30;99.90
38902;DHT22;24661;53.566;9.910;2022-11-28T12:26:32;5.30;99.90
38902;DHT22;24661;53.566;9.910;2022-11-28T12:54:42;5.30;99.90
38902;DHT22;24661;53.566;9.910;2022-11-28T13:05:11;5.40;99.90
38902;DHT22;24661;53.566;9.910;2022-11-28T13:13:06;5.20;99.90
38902;DHT22;24661;53.566;9.910;2022-11-28T13:15:58;5.20;99.90
38902;DHT22;24661;53.566;9.910;2022-11-28T13:18:40;5.20;99.90
38902;DHT22;24661;53.566;9.910;2022-11-28T13:24:30;5.20;99.90
38902;DHT22;24661;53.566;9.910;2022-11-28T13:35:11;5.10;99.90
38902;DHT22;24661;53.566;9.910;2022-11-28T13:38:03;5.20;99.90
38902;DHT22;24661;53.566;9.910;2022-11-28T13:40:38;5.10;99.90
38902;DHT22;24661;53.566;9.910;2022-11-28T13:43:16;5.00;99.90
38902;DHT22;24661;53.566;9.910;2022-11-28T13:45:49;5.00;99.90
38902;DHT22;24661;53.566;9.910;2022-11-28T13:51:20;5.10;99.90
38902;DHT22;24661;53.566;9.910;2022-11-28T13:53:47;5.10;99.90
38902;DHT22;24661;53.566;9.910;2022-11-28T13:56:33;5.10;99.90
38902;DHT22;24661;53.566;9.910;2022-11-28T13:59:00;5.00;99.90
38902;DHT22;24661;53.566;9.910;2022-11-28T14:01:28;5.00;99.90
38902;DHT22;24661;53.566;9.910;2022-11-28T14:06:49;4.90;99.90
38902;DHT22;24661;53.566;9.910;2022-11-28T14:15:44;4.80;99.90
38902;DHT22;24661;53.566;9.910;2022-11-28T14:18:30;4.90;99.90
38902;DHT22;24661;53.566;9.910;2022-11-28T14:21:17;4.80;99.90
38902;DHT22;24661;53.566;9.910;2022-11-28T14:26:39;4.80;99.90
38902;DHT22;24661;53.566;9.910;2022-11-28T14:29:19;4.80;99.90
38902;DHT22;24661;53.566;9.910;2022-11-28T14:31:46;4.80;99.90
38902;DHT22;24661;53.566;9.910;2022-11-28T14:34:38;4.80;99.90
38902;DHT22;24661;53.566;9.910;2022-11-28T14:39:50;4.80;99.90
38902;DHT22;24661;53.566;9.910;2022-11-28T14:47:35;4.80;99.90
38902;DHT22;24661;53.566;9.910;2022-11-28T14:52:31;4.70;99.90
38902;DHT22;24661;53.566;9.910;2022-11-28T14:54:58;4.80;99.90
38902;DHT22;24661;53.566;9.910;2022-11-28T15:00:39;4.90;99.90
38902;DHT22;24661;53.566;9.910;2022-11-28T15:03:39;4.80;99.90
38902;DHT22;24661;53.566;9.910;2022-11-28T15:06:40;4.80;99.90
38902;DHT22;24661;53.566;9.910;2022-11-28T15:09:40;4.80;99.90
38902;DHT22;24661;53.566;9.910;2022-11-28T15:15:36;4.80;99.90
38902;DHT22;24661;53.566;9.910;2022-11-28T15:18:23;4.70;99.90
38902;DHT22;24661;53.566;9.910;2022-11-28T15:21:04;4.80;99.90
38902;DHT22;24661;53.566;9.910;2022-11-28T15:23:37;4.70;99.90
38902;DHT22;24661;53.566;9.910;2022-11-28T15:26:04;4.80;99.90
38902;DHT22;24661;53.566;9.910;2022-11-28T15:28:30;4.80;99.90
38902;DHT22;24661;53.566;9.910;2022-11-28T15:31:02;4.80;99.90
38902;DHT22;24661;53.566;9.910;2022-11-28T15:33:31;4.80;99.90
38902;DHT22;24661;53.566;9.910;2022-11-28T15:36:01;4.70;99.90
38902;DHT22;24661;53.566;9.910;2022-11-28T15:38:29;4.70;99.90
38902;DHT22;24661;53.566;9.910;2022-11-28T15:40:57;4.90;99.90
38902;DHT22;24661;53.566;9.910;2022-11-28T15:43:24;4.80;99.90
38902;DHT22;24661;53.566;9.910;2022-11-28T15:45:56;4.80;99.90
38902;DHT22;24661;53.566;9.910;2022-11-28T15:48:37;4.90;99.90
38902;DHT22;24661;53.566;9.910;2022-11-28T15:51:04;4.90;99.90
38902;DHT22;24661;53.566;9.910;2022-11-28T15:53:30;4.90;99.90
38902;DHT22;24661;53.566;9.910;2022-11-28T15:58:35;4.90;99.90
38902;DHT22;24661;53.566;9.910;2022-11-28T16:03:56;5.00;99.90
38902;DHT22;24661;53.566;9.910;2022-11-28T16:06:27;4.90;99.90
38902;DHT22;24661;53.566;9.910;2022-11-28T16:08:56;4.90;99.90
38902;DHT22;24661;53.566;9.910;2022-11-28T16:11:25;4.90;99.90
38902;DHT22;24661;53.566;9.910;2022-11-28T16:13:53;4.90;99.90
38902;DHT22;24661;53.566;9.910;2022-11-28T16:16:25;4.90;99.90
38902;DHT22;24661;53.566;9.910;2022-11-28T16:18:58;4.90;99.90
38902;DHT22;24661;53.566;9.910;2022-11-28T16:21:49;5.00;99.90
38902;DHT22;24661;53.566;9.910;2022-11-28T16:27:00;5.00;99.90
38902;DHT22;24661;53.566;9.910;2022-11-28T16:29:30;5.00;99.90
38902;DHT22;24661;53.566;9.910;2022-11-28T16:32:18;4.90;99.90
38902;DHT22;24661;53.566;9.910;2022-11-28T16:34:50;5.00;99.90
38902;DHT22;24661;53.566;9.910;2022-11-28T16:37:23;5.00;99.90
38902;DHT22;24661;53.566;9.910;2022-11-28T16:40:14;5.00;99.90
38902;DHT22;24661;53.566;9.910;2022-11-28T16:42:42;5.00;99.90
38902;DHT22;24661;53.566;9.910;2022-11-28T16:45:20;5.00;99.90
38902;DHT22;24661;53.566;9.910;2022-11-28T16:48:05;5.00;99.90
38902;DHT22;24661;53.566;9.910;2022-11-28T16:50:33;5.00;99.90
38902;DHT22;24661;53.566;9.910;2022-11-28T16:52:59;5.10;99.90
38902;DHT22;24661;53.566;9.910;2022-11-28T16:58:01;5.00;99.90
38902;DHT22;24661;53.566;9.910;2022-11-28T17:00:33;4.10;99.90
38902;DHT22;24661;53.566;9.910;2022-11-28T17:02:59;4.90;99.90
38902;DHT22;24661;53.566;9.910;2022-11-28T17:05:25;5.00;99.90
38902;DHT22;24661;53.566;9.910;2022-11-28T17:07:54;5.00;99.90
38902;DHT22;24661;53.566;9.910;2022-11-28T17:10:20;5.00;99.90
38902;DHT22;24661;53.566;9.910;2022-11-28T17:12:46;5.00;99.90
38902;DHT22;24661;53.566;9.910;2022-11-28T17:15:17;5.00;99.90
38902;DHT22;24661;53.566;9.910;2022-11-28T17:17:43;4.90;99.90
38902;DHT22;24661;53.566;9.910;2022-11-28T17:20:11;5.00;99.90
38902;DHT22;24661;53.566;9.910;2022-11-28T17:22:43;5.00;99.90
38902;DHT22;24661;53.566;9.910;2022-11-28T17:25:18;5.00;99.90
38902;DHT22;24661;53.566;9.910;2022-11-28T17:27:46;5.00;99.90
38902;DHT22;24661;53.566;9.910;2022-11-28T17:30:16;4.90;99.90
38902;DHT22;24661;53.566;9.910;2022-11-28T17:32:45;6.20;99.90
38902;DHT22;24661;53.566;9.910;2022-11-28T17:35:20;4.90;99.90
38902;DHT22;24661;53.566;9.910;2022-11-28T17:37:47;4.90;99.90
38902;DHT22;24661;53.566;9.910;2022-11-28T17:40:13;4.90;99.90
38902;DHT22;24661;53.566;9.910;2022-11-28T17:42:57;4.90;99.90
38902;DHT22;24661;53.566;9.910;2022-11-28T17:45:24;4.90;99.90
38902;DHT22;24661;53.566;9.910;2022-11-28T17:47:51;4.90;99.90
38902;DHT22;24661;53.566;9.910;2022-11-28T17:50:17;4.90;99.90
38902;DHT22;24661;53.566;9.910;2022-11-28T17:52:43;4.90;99.90
38902;DHT22;24661;53.566;9.910;2022-11-28T17:55:12;4.80;99.90
38902;DHT22;24661;53.566;9.910;2022-11-28T17:57:38;5.40;99.90
38902;DHT22;24661;53.566;9.910;2022-11-28T18:00:06;4.90;99.90
38902;DHT22;24661;53.566;9.910;2022-11-28T18:02:36;4.90;99.90
38902;DHT22;24661;53.566;9.910;2022-11-28T18:05:01;4.90;99.90
38902;DHT22;24661;53.566;9.910;2022-11-28T18:07:27;4.90;99.90
38902;DHT22;24661;53.566;9.910;2022-11-28T18:09:54;4.90;99.90
38902;DHT22;24661;53.566;9.910;2022-11-28T18:12:20;4.90;99.90
38902;DHT22;24661;53.566;9.910;2022-11-28T18:14:50;4.90;99.90
38902;DHT22;24661;53.566;9.910;2022-11-28T18:17:23;4.80;99.90
38902;DHT22;24661;53.566;9.910;2022-11-28T18:19:51;4.90;99.90
38902;DHT22;24661;53.566;9.910;2022-11-28T18:22:17;4.90;99.90
38902;DHT22;24661;53.566;9.910;2022-11-28T18:24:48;5.00;99.90
38902;DHT22;24661;53.566;9.910;2022-11-28T18:27:27;4.90;99.90
38902;DHT22;24661;53.566;9.910;2022-11-28T18:30:08;4.90;99.90
38902;DHT22;24661;53.566;9.910;2022-11-28T18:32:34;5.00;99.90
38902;DHT22;24661;53.566;9.910;2022-11-28T18:35:22;5.00;99.90
38902;DHT22;24661;53.566;9.910;2022-11-28T18:38:06;5.00;99.90
38902;DHT22;24661;53.566;9.910;2022-11-28T18:40:39;5.00;99.90
38902;DHT22;24661;53.566;9.910;2022-11-28T18:43:18;5.00;99.90
38902;DHT22;24661;53.566;9.910;2022-11-28T18:45:45;5.10;99.90
38902;DHT22;24661;53.566;9.910;2022-11-28T18:48:16;5.10;99.90
38902;DHT22;24661;53.566;9.910;2022-11-28T18:50:46;5.00;99.90
38902;DHT22;24661;53.566;9.910;2022-11-28T18:53:19;4.60;99.90
38902;DHT22;24661;53.566;9.910;2022-11-28T18:55:56;5.00;99.90
38902;DHT22;24661;53.566;9.910;2022-11-28T18:58:38;5.00;99.90
38902;DHT22;24661;53.566;9.910;2022-11-28T19:04:12;4.90;99.90
38902;DHT22;24661;53.566;9.910;2022-11-28T19:06:52;6.10;99.90
38902;DHT22;24661;53.566;9.910;2022-11-28T19:09:32;4.00;99.90
38902;DHT22;24661;53.566;9.910;2022-11-28T19:12:10;5.00;99.90
38902;DHT22;24661;53.566;9.910;2022-11-28T19:14:43;5.00;99.90
38902;DHT22;24661;53.566;9.910;2022-11-28T19:17:29;5.10;99.90
38902;DHT22;24661;53.566;9.910;2022-11-28T19:20:08;5.10;99.90
38902;DHT22;24661;53.566;9.910;2022-11-28T19:22:36;5.10;99.90
38902;DHT22;24661;53.566;9.910;2022-11-28T19:25:01;5.10;99.90
38902;DHT22;24661;53.566;9.910;2022-11-28T19:27:28;5.10;99.90
38902;DHT22;24661;53.566;9.910;2022-11-28T19:29:54;5.10;99.90